Αρχική σελίδα
METAR-TAF:

METAR-TAF

Αεροδρόμια :

Watson Lake, Γιουκόν, Καναδάς

γεωγραφικό πλάτος: 60-07N, γεωγραφικό μήκος: 128-49W, υψόμετρο: 690 μ

Παρών καιρός

Η αναφορά έγινε 37 λεπτά πριν, στις 06:00 UTC
Άνεμος 2 kt από μεταβλητές κατευθύνσεις
Θερμοκρασία -1°C
Υγρασία 74%
Πίεση 1012 hPa
Ορατότητα: 32.2 χλμ
Λίγα νέφη σε ύψος 10000 πόδια
Διάσπαρτα νέφη σε ύψος 20000 πόδια

METAR: CYQH 220600Z VRB02KT 20SM FEW100 SCT200 M01/M05 A2987 RMK AC1CI2 CLIMAT 10.6/-3.0/0.0 SLP150

Χρόνος: 23:37 (06:37 UTC)

Πρόγνωση Καιρού

Η αναφορά έγινε 59 λεπτά πριν, στις 05:38 UTC
Η πρόγνωση ισχύει από τις 22 στις 06 UTC έως τις 22 στις 18 UTC
Άνεμος 3 kt από μεταβλητές κατευθύνσεις
Ορατότητα: 10 χλμ
Λίγα νέφη σε ύψος 10000 πόδια
Διάσπαρτα νέφη σε ύψος 20000 πόδια

TAF: CYQH 220538Z 2206/2218 VRB03KT P6SM FEW100 SCT200 RMK NXT FCST BY 221200Z

Μετεωρολογικές αναφορές και προγνώσεις για περισσότερα από 4000 αεροδρόμια (δελτία METAR και TAF).

Οι διαθέσιμοι σταθμοί απεικονίζονται στο χάρτη με κίτρινες και κόκκινες κουκκίδες.

Μετακινήστε το ποντίκι πάνω από τις κουκκίδες για να δείτε το όνομα του σταθμού.

Στη συνέχεια, κάντε κλικ για να δείτε τις μετεωρολογικές αναφορές και τις προγνώσεις καιρού.

Για να αλλάξετε το χάρτη: κάντε κλικ στα πράσινα κουμπιά με τον μαύρο σταυρό για να ζουμάρετε, στο πράσινο κουμπί με την παύλα για να αφαιρέσετε το ζουμ ή στα πράσινα βέλη για να αντιπαραβάλλετε χάρτες.


METAR-TAF: